EFET

Enontekio Airport

Enontekio, Finland
METAR EFET 211250Z AUTO 22004KT CAVOK M16/M19 Q1020
Observed Flight Rules
Feb-21 @ 12:50 UTC (32 minutes ago) Visual Flight Rules
Wind Visibility Clouds
220° at 4 knots 10,000+ meters
  • Clear skies
Temperatures Readings
Current -16°C / 3°F
Dewpoint -19°C / -2°F
Humidity 78%
Altimeter 30.12" Hg
Pressure 1020 hPa
Elevation 306
METAR EFET 211250Z AUTO 22004KT CAVOK M16/M19 Q1020
Observed Flight Rules
Feb-21 @ 12:50 UTC
(32 minutes ago)
VFR
Wind Visibility
220° at 4 knots 10,000+ meters
Clouds
  • Clear skies
Temperature Dewpoint
-16°C / 3°F -19°C / -2°F
Humidity Altimeter Pressure
78% 30.12" Hg 1020 hPa